createdAt,value
2023-01-29T00:00:27.793Z,34.80
2023-01-29T00:01:27.759Z,33.50
2023-01-29T00:02:27.774Z,36.40
2023-01-29T00:03:27.789Z,35.90
2023-01-29T00:04:27.798Z,35.50
2023-01-29T00:05:28.580Z,34.70
2023-01-29T00:06:27.763Z,33.70
2023-01-29T00:07:27.701Z,33.80
2023-01-29T00:08:27.723Z,34.50
2023-01-29T00:09:27.684Z,33.10
2023-01-29T00:10:27.724Z,32.70
2023-01-29T00:11:27.660Z,33.80
2023-01-29T00:12:27.678Z,34.20
2023-01-29T00:13:27.644Z,34.50
2023-01-29T00:14:27.663Z,35.60
2023-01-29T00:15:27.627Z,35.60
2023-01-29T00:16:27.663Z,35.00
2023-01-29T00:17:27.611Z,35.20
2023-01-29T00:18:27.621Z,35.50
2023-01-29T00:19:27.592Z,33.90
2023-01-29T00:20:27.595Z,34.20
2023-01-29T00:21:27.605Z,33.50
2023-01-29T00:22:27.596Z,34.00
2023-01-29T00:23:27.550Z,35.10
2023-01-29T00:24:27.608Z,33.40
2023-01-29T00:25:27.531Z,32.70
2023-01-29T00:26:27.539Z,33.50
2023-01-29T00:27:27.509Z,32.80
2023-01-29T00:28:27.543Z,33.80
2023-01-29T00:29:27.490Z,33.60
2023-01-29T00:30:27.496Z,33.60
2023-01-29T00:31:27.528Z,33.50
2023-01-29T00:32:27.500Z,34.90
2023-01-29T00:33:27.447Z,34.50
2023-01-29T00:34:27.482Z,33.00
2023-01-29T00:35:27.430Z,32.90
2023-01-29T00:36:27.448Z,32.40
2023-01-29T00:37:27.412Z,34.30
2023-01-29T00:38:27.443Z,34.30
2023-01-29T00:39:33.749Z,33.60
2023-01-29T00:40:27.443Z,33.60
2023-01-29T00:41:27.372Z,34.60
2023-01-29T00:42:27.389Z,33.30
2023-01-29T00:43:27.350Z,33.20
2023-01-29T00:44:27.367Z,33.10
2023-01-29T00:45:27.343Z,33.00
2023-01-29T00:46:27.418Z,33.30
2023-01-29T00:47:27.314Z,33.10
2023-01-29T00:48:27.328Z,33.10
2023-01-29T00:49:27.296Z,33.80
2023-01-29T00:50:27.281Z,32.00
2023-01-29T00:51:27.311Z,31.70
2023-01-29T00:52:27.269Z,33.20
2023-01-29T00:53:27.285Z,33.20
2023-01-29T00:54:27.251Z,32.50
2023-01-29T00:55:27.256Z,32.20
2023-01-29T00:56:27.273Z,34.00
2023-01-29T00:57:27.261Z,32.50
2023-01-29T00:58:27.222Z,33.10
2023-01-29T00:59:27.237Z,33.90
2023-01-29T01:00:27.199Z,33.20
2023-01-29T01:01:27.223Z,32.80
2023-01-29T01:02:27.183Z,32.80
2023-01-29T01:03:27.189Z,32.20
2023-01-29T01:04:27.159Z,33.60
2023-01-29T01:05:27.163Z,32.40
2023-01-29T01:06:27.127Z,34.00
2023-01-29T01:07:27.150Z,33.10
2023-01-29T01:08:27.130Z,33.20
2023-01-29T01:09:27.115Z,33.10
2023-01-29T01:10:27.108Z,33.50
2023-01-29T01:11:27.103Z,31.50
2023-01-29T01:12:27.070Z,33.10
2023-01-29T01:13:27.078Z,31.70
2023-01-29T01:14:27.054Z,32.40
2023-01-29T01:15:27.054Z,32.90
2023-01-29T01:16:27.070Z,33.00
2023-01-29T01:17:27.057Z,32.40
2023-01-29T01:18:27.009Z,33.50
2023-01-29T01:19:27.053Z,33.90
2023-01-29T01:20:26.984Z,33.80
2023-01-29T01:21:27.006Z,33.90
2023-01-29T01:22:26.970Z,31.90
2023-01-29T01:23:26.985Z,33.10
2023-01-29T01:24:26.975Z,33.30
2023-01-29T01:25:27.004Z,31.60
2023-01-29T01:26:26.935Z,31.90
2023-01-29T01:27:26.958Z,32.40
2023-01-29T01:28:26.914Z,32.50
2023-01-29T01:29:26.927Z,32.50
2023-01-29T01:30:26.900Z,33.80
2023-01-29T01:31:27.100Z,33.10
2023-01-29T01:32:26.888Z,33.60
2023-01-29T01:33:26.899Z,32.50
2023-01-29T01:34:26.871Z,32.70
2023-01-29T01:35:26.878Z,32.60
2023-01-29T01:36:26.861Z,33.00
2023-01-29T01:37:26.841Z,33.20
2023-01-29T01:38:26.812Z,33.00
2023-01-29T01:39:26.823Z,33.40
2023-01-29T01:40:26.813Z,33.10
2023-01-29T01:41:26.826Z,32.30
2023-01-29T01:42:26.796Z,32.60
2023-01-29T01:43:26.798Z,32.30
2023-01-29T01:44:26.761Z,33.90
2023-01-29T01:45:26.875Z,32.70
2023-01-29T01:46:26.739Z,32.40
2023-01-29T01:47:26.746Z,32.30
2023-01-29T01:48:26.761Z,31.50
2023-01-29T01:49:26.734Z,32.60
2023-01-29T01:50:26.706Z,33.40
2023-01-29T01:51:26.735Z,33.40
2023-01-29T01:52:26.681Z,31.80
2023-01-29T01:53:26.692Z,32.70
2023-01-29T01:54:26.670Z,33.10
2023-01-29T01:55:26.684Z,32.30
2023-01-29T01:56:26.641Z,32.90
2023-01-29T01:57:26.647Z,32.60
2023-01-29T01:58:26.618Z,32.50
2023-01-29T01:59:26.646Z,32.20
2023-01-29T02:00:26.600Z,31.60
2023-01-29T02:01:26.671Z,31.20
2023-01-29T02:02:26.617Z,30.80
2023-01-29T02:03:26.591Z,30.90
2023-01-29T02:04:26.581Z,31.70
2023-01-29T02:05:26.572Z,32.40
2023-01-29T02:06:26.549Z,32.00
2023-01-29T02:07:26.550Z,32.10
2023-01-29T02:08:26.527Z,31.20
2023-01-29T02:09:26.564Z,31.60
2023-01-29T02:10:26.497Z,30.50
2023-01-29T02:11:26.515Z,31.30
2023-01-29T02:12:26.474Z,29.40
2023-01-29T02:13:26.507Z,30.30
2023-01-29T02:14:26.463Z,29.30
2023-01-29T02:15:26.483Z,30.60
2023-01-29T02:16:26.458Z,30.20
2023-01-29T02:17:26.486Z,30.40
2023-01-29T02:18:26.426Z,29.60
2023-01-29T02:19:26.435Z,30.20
2023-01-29T02:20:26.450Z,30.10
2023-01-29T02:21:26.416Z,29.90
2023-01-29T02:22:26.376Z,29.50
2023-01-29T02:23:26.402Z,29.70
2023-01-29T02:24:26.421Z,29.10
2023-01-29T02:25:26.379Z,30.60
2023-01-29T02:26:26.364Z,29.10
2023-01-29T02:27:26.359Z,29.70
2023-01-29T02:28:26.321Z,30.30
2023-01-29T02:29:26.334Z,29.20
2023-01-29T02:30:26.298Z,29.30
2023-01-29T02:31:26.346Z,29.90
2023-01-29T02:32:26.296Z,30.60
2023-01-29T02:33:26.293Z,30.50
2023-01-29T02:34:26.266Z,30.10
2023-01-29T02:35:26.279Z,29.00
2023-01-29T02:36:26.237Z,30.00
2023-01-29T02:37:26.256Z,29.60
2023-01-29T02:38:26.244Z,29.40
2023-01-29T02:39:26.237Z,29.90
2023-01-29T02:40:26.203Z,30.50
2023-01-29T02:41:26.211Z,31.60
2023-01-29T02:42:26.182Z,30.70
2023-01-29T02:43:26.208Z,31.10
2023-01-29T02:44:26.189Z,30.70
2023-01-29T02:45:26.194Z,30.00
2023-01-29T02:46:26.152Z,30.50
2023-01-29T02:47:26.157Z,30.00
2023-01-29T02:48:26.123Z,30.90
2023-01-29T02:49:26.146Z,31.00
2023-01-29T02:50:26.133Z,30.60
2023-01-29T02:51:26.124Z,31.10
2023-01-29T02:52:26.085Z,30.10
2023-01-29T02:53:26.095Z,31.50
2023-01-29T02:54:26.073Z,30.70
2023-01-29T02:55:26.091Z,30.50
2023-01-29T02:56:26.068Z,30.60
2023-01-29T02:57:26.061Z,31.20
2023-01-29T02:58:26.026Z,31.70
2023-01-29T02:59:26.055Z,30.40
2023-01-29T03:00:26.025Z,30.40
2023-01-29T03:01:26.055Z,31.20
2023-01-29T03:02:26.086Z,31.60
2023-01-29T03:03:26.011Z,31.90
2023-01-29T03:04:25.976Z,31.00
2023-01-29T03:05:26.006Z,31.10
2023-01-29T03:06:25.959Z,31.40
2023-01-29T03:07:25.976Z,31.90
2023-01-29T03:08:25.946Z,31.90
2023-01-29T03:09:25.949Z,32.40
2023-01-29T03:10:25.925Z,32.10
2023-01-29T03:11:25.919Z,31.70
2023-01-29T03:12:25.892Z,31.80
2023-01-29T03:13:25.903Z,31.80
2023-01-29T03:14:25.899Z,32.40
2023-01-29T03:15:25.878Z,32.40
2023-01-29T03:16:25.919Z,32.70
2023-01-29T03:17:25.877Z,32.10
2023-01-29T03:18:25.853Z,32.90
2023-01-29T03:19:25.862Z,31.00
2023-01-29T03:20:25.828Z,32.20
2023-01-29T03:21:25.819Z,31.70
2023-01-29T03:22:25.803Z,30.30
2023-01-29T03:23:25.795Z,32.80
2023-01-29T03:24:26.019Z,30.60
2023-01-29T03:25:25.790Z,32.30
2023-01-29T03:26:25.773Z,31.10
2023-01-29T03:27:25.763Z,32.80
2023-01-29T03:28:25.747Z,31.30
2023-01-29T03:29:25.745Z,32.90
2023-01-29T03:30:25.717Z,32.10
2023-01-29T03:31:25.832Z,32.20
2023-01-29T03:32:25.697Z,32.10
2023-01-29T03:33:25.718Z,32.80
2023-01-29T03:34:25.671Z,31.70
2023-01-29T03:35:25.686Z,32.20
2023-01-29T03:36:25.646Z,32.30
2023-01-29T03:37:25.668Z,31.70
2023-01-29T03:38:25.658Z,32.30
2023-01-29T03:39:25.659Z,31.50
2023-01-29T03:40:25.611Z,32.20
2023-01-29T03:41:25.616Z,32.10
2023-01-29T03:42:25.588Z,33.00
2023-01-29T03:43:25.594Z,32.30
2023-01-29T03:44:25.589Z,33.30
2023-01-29T03:45:25.576Z,32.70
2023-01-29T03:46:25.547Z,32.90
2023-01-29T03:47:25.563Z,32.10
2023-01-29T03:48:25.535Z,32.90
2023-01-29T03:49:25.547Z,33.20
2023-01-29T03:50:25.513Z,32.30
2023-01-29T03:51:25.527Z,32.70
2023-01-29T03:52:25.489Z,32.00
2023-01-29T03:53:25.497Z,33.60
2023-01-29T03:54:25.487Z,33.20
2023-01-29T03:55:25.474Z,32.00
2023-01-29T03:56:25.452Z,32.20
2023-01-29T03:57:25.489Z,33.40
2023-01-29T03:58:25.430Z,33.20
2023-01-29T03:59:25.465Z,33.00
2023-01-29T04:00:25.414Z,33.40
2023-01-29T04:01:25.469Z,33.30
2023-01-29T04:02:25.392Z,33.10
2023-01-29T04:03:25.401Z,32.90
2023-01-29T04:04:25.406Z,32.60
2023-01-29T04:05:25.390Z,33.90
2023-01-29T04:06:25.355Z,34.10
2023-01-29T04:07:25.376Z,32.20
2023-01-29T04:08:25.343Z,32.90
2023-01-29T04:09:25.364Z,34.20
2023-01-29T04:10:25.321Z,33.60
2023-01-29T04:11:25.342Z,32.80
2023-01-29T04:12:25.287Z,33.60
2023-01-29T04:13:25.300Z,34.40
2023-01-29T04:14:25.265Z,33.40
2023-01-29T04:15:25.295Z,34.10
2023-01-29T04:16:25.302Z,34.60
2023-01-29T04:17:25.260Z,34.40
2023-01-29T04:18:25.309Z,34.80
2023-01-29T04:19:25.241Z,33.50
2023-01-29T04:20:25.233Z,33.50
2023-01-29T04:21:25.223Z,33.90
2023-01-29T04:22:25.184Z,35.10
2023-01-29T04:23:25.207Z,33.40
2023-01-29T04:24:25.211Z,33.30
2023-01-29T04:25:25.178Z,33.90
2023-01-29T04:26:25.168Z,35.10
2023-01-29T04:27:25.158Z,33.60
2023-01-29T04:28:25.126Z,32.70
2023-01-29T04:29:25.155Z,34.30
2023-01-29T04:30:25.115Z,34.40
2023-01-29T04:31:25.181Z,34.80
2023-01-29T04:32:25.098Z,33.00
2023-01-29T04:33:25.103Z,32.60
2023-01-29T04:34:25.084Z,34.60
2023-01-29T04:35:25.075Z,34.10
2023-01-29T04:36:25.046Z,34.30
2023-01-29T04:37:25.076Z,32.80
2023-01-29T04:38:25.060Z,34.10
2023-01-29T04:39:25.044Z,33.30
2023-01-29T04:40:25.021Z,33.40
2023-01-29T04:41:25.043Z,32.60
2023-01-29T04:42:24.994Z,33.40
2023-01-29T04:43:25.032Z,35.80
2023-01-29T04:44:24.977Z,34.80
2023-01-29T04:45:24.979Z,34.90
2023-01-29T04:46:24.959Z,33.70
2023-01-29T04:47:25.078Z,33.90
2023-01-29T04:48:24.935Z,35.20
2023-01-29T04:49:24.965Z,33.70
2023-01-29T04:50:24.928Z,36.40
2023-01-29T04:51:24.929Z,34.20
2023-01-29T04:52:24.899Z,35.10
2023-01-29T04:53:24.896Z,33.90
2023-01-29T04:54:24.875Z,36.20
2023-01-29T04:55:24.875Z,36.30
2023-01-29T04:56:24.859Z,36.90
2023-01-29T04:57:24.859Z,35.90
2023-01-29T04:58:24.832Z,35.30
2023-01-29T04:59:24.838Z,35.20
2023-01-29T05:00:24.805Z,35.60
2023-01-29T05:01:24.871Z,35.00
2023-01-29T05:02:24.823Z,36.30
2023-01-29T05:03:24.808Z,36.20
2023-01-29T05:04:24.773Z,37.70
2023-01-29T05:05:24.799Z,35.70
2023-01-29T05:06:24.793Z,36.60
2023-01-29T05:07:24.747Z,36.20
2023-01-29T05:08:24.748Z,35.70
2023-01-29T05:09:24.710Z,36.70
2023-01-29T05:10:24.735Z,35.20
2023-01-29T05:11:24.690Z,37.00
2023-01-29T05:12:24.760Z,35.70
2023-01-29T05:13:24.674Z,36.50
2023-01-29T05:14:24.696Z,36.90
2023-01-29T05:15:24.651Z,35.50
2023-01-29T05:16:24.732Z,38.10
2023-01-29T05:17:24.632Z,38.20
2023-01-29T05:18:24.655Z,37.40
2023-01-29T05:19:24.626Z,36.80
2023-01-29T05:20:24.625Z,37.30
2023-01-29T05:21:24.599Z,36.10
2023-01-29T05:22:24.621Z,37.50
2023-01-29T05:23:24.590Z,37.00
2023-01-29T05:24:24.659Z,37.20
2023-01-29T05:25:24.551Z,38.40
2023-01-29T05:26:24.567Z,37.00
2023-01-29T05:27:24.542Z,38.10
2023-01-29T05:28:24.560Z,36.20
2023-01-29T05:29:24.547Z,37.60
2023-01-29T05:30:24.529Z,37.50
2023-01-29T05:31:24.569Z,37.80
2023-01-29T05:32:24.504Z,37.90
2023-01-29T05:33:24.499Z,39.80
2023-01-29T05:34:24.495Z,36.90
2023-01-29T05:35:24.453Z,36.70
2023-01-29T05:36:24.467Z,37.10
2023-01-29T05:37:24.458Z,37.40
2023-01-29T05:38:24.448Z,37.10
2023-01-29T05:39:24.432Z,37.10
2023-01-29T05:40:24.427Z,36.70
2023-01-29T05:41:24.408Z,38.50
2023-01-29T05:42:24.405Z,36.70
2023-01-29T05:43:24.374Z,37.80
2023-01-29T05:44:24.406Z,37.50
2023-01-29T05:45:24.347Z,37.40
2023-01-29T05:46:24.434Z,36.90
2023-01-29T05:47:24.334Z,37.10
2023-01-29T05:48:24.344Z,38.30
2023-01-29T05:49:24.311Z,35.60
2023-01-29T05:50:24.350Z,37.10
2023-01-29T05:51:24.288Z,38.00
2023-01-29T05:52:24.301Z,37.60
2023-01-29T05:53:24.302Z,37.60
2023-01-29T05:54:24.292Z,37.40
2023-01-29T05:55:24.253Z,37.50
2023-01-29T05:56:24.269Z,37.40
2023-01-29T05:57:24.233Z,38.10
2023-01-29T05:58:24.245Z,37.70
2023-01-29T05:59:24.216Z,38.50
2023-01-29T06:00:24.244Z,39.60
2023-01-29T06:01:24.207Z,37.70
2023-01-29T06:02:24.207Z,39.00
2023-01-29T06:03:24.173Z,37.70
2023-01-29T06:04:24.209Z,37.00
2023-01-29T06:05:24.145Z,37.90
2023-01-29T06:06:24.170Z,38.00
2023-01-29T06:07:24.158Z,39.00
2023-01-29T06:08:24.141Z,38.50
2023-01-29T06:09:24.122Z,38.50
2023-01-29T06:10:24.213Z,39.40
2023-01-29T06:11:24.087Z,37.70
2023-01-29T06:12:24.095Z,39.40
2023-01-29T06:13:24.073Z,38.80
2023-01-29T06:14:24.075Z,37.20
2023-01-29T06:15:24.043Z,38.40
2023-01-29T06:16:24.102Z,40.10
2023-01-29T06:17:24.040Z,38.20
2023-01-29T06:18:24.066Z,38.90
2023-01-29T06:19:24.012Z,38.30
2023-01-29T06:20:24.026Z,40.00
2023-01-29T06:21:24.007Z,39.10
2023-01-29T06:22:24.006Z,40.00
2023-01-29T06:23:23.969Z,39.70
2023-01-29T06:24:24.088Z,40.00
2023-01-29T06:25:23.950Z,39.40
2023-01-29T06:26:23.967Z,39.50
2023-01-29T06:27:23.945Z,40.30
2023-01-29T06:28:23.953Z,39.20
2023-01-29T06:29:23.907Z,38.00
2023-01-29T06:30:23.940Z,38.90
2023-01-29T06:31:39.942Z,39.50
2023-01-29T06:32:23.994Z,40.00
2023-01-29T06:33:23.862Z,39.30
2023-01-29T06:34:23.872Z,39.30
2023-01-29T06:35:23.870Z,39.10
2023-01-29T06:36:23.877Z,40.30
2023-01-29T06:37:23.819Z,39.70
2023-01-29T06:38:23.839Z,39.20
2023-01-29T06:39:23.800Z,39.00
2023-01-29T06:40:23.812Z,39.50
2023-01-29T06:41:23.809Z,38.70
2023-01-29T06:42:23.799Z,39.00
2023-01-29T06:43:23.758Z,40.60
2023-01-29T06:44:23.782Z,40.70
2023-01-29T06:45:23.770Z,41.10
2023-01-29T06:46:23.752Z,39.80
2023-01-29T06:47:23.734Z,41.30
2023-01-29T06:48:23.747Z,39.60
2023-01-29T06:49:23.715Z,39.50
2023-01-29T06:50:23.722Z,41.40
2023-01-29T06:51:23.686Z,40.20
2023-01-29T06:52:23.690Z,40.00
2023-01-29T06:53:23.670Z,39.70
2023-01-29T06:54:23.681Z,40.90
2023-01-29T06:55:23.635Z,40.40
2023-01-29T06:56:23.646Z,41.00
2023-01-29T06:57:23.617Z,42.00
2023-01-29T06:58:23.649Z,42.50
2023-01-29T06:59:23.595Z,40.20
2023-01-29T07:00:23.606Z,41.50
2023-01-29T07:01:35.689Z,42.30
2023-01-29T07:02:23.651Z,41.50
2023-01-29T07:03:23.561Z,40.30
2023-01-29T07:04:23.603Z,42.40
2023-01-29T07:05:23.542Z,42.70
2023-01-29T07:06:23.548Z,42.20
2023-01-29T07:07:23.512Z,42.90
2023-01-29T07:08:23.526Z,42.30
2023-01-29T07:09:23.494Z,41.20
2023-01-29T07:10:23.531Z,41.60
2023-01-29T07:11:23.480Z,40.50
2023-01-29T07:12:23.495Z,41.70
2023-01-29T07:13:23.457Z,41.30
2023-01-29T07:14:23.466Z,41.20
2023-01-29T07:15:23.456Z,43.90
2023-01-29T07:16:23.605Z,42.70
2023-01-29T07:17:23.409Z,41.30
2023-01-29T07:18:23.428Z,42.90
2023-01-29T07:19:23.399Z,42.30
2023-01-29T07:20:23.407Z,41.60
2023-01-29T07:21:23.408Z,43.10
2023-01-29T07:22:23.385Z,41.80
2023-01-29T07:23:23.349Z,42.80
2023-01-29T07:24:23.411Z,43.80
2023-01-29T07:25:23.337Z,43.50
2023-01-29T07:26:23.345Z,43.90
2023-01-29T07:27:23.345Z,44.10
2023-01-29T07:28:23.326Z,45.00
2023-01-29T07:29:23.287Z,44.40
2023-01-29T07:30:23.309Z,43.10
2023-01-29T07:31:23.444Z,43.20
2023-01-29T07:32:23.357Z,44.00
2023-01-29T07:33:23.261Z,44.30
2023-01-29T07:34:23.260Z,43.30
2023-01-29T07:35:23.250Z,44.60
2023-01-29T07:36:23.247Z,42.80
2023-01-29T07:37:23.204Z,42.50
2023-01-29T07:38:23.235Z,42.30
2023-01-29T07:39:23.203Z,40.90
2023-01-29T07:40:23.207Z,40.40
2023-01-29T07:41:23.179Z,41.00
2023-01-29T07:42:23.184Z,42.50
2023-01-29T07:43:23.151Z,40.60
2023-01-29T07:44:23.159Z,40.20
2023-01-29T07:45:23.153Z,40.30
2023-01-29T07:46:23.150Z,40.90
2023-01-29T07:47:23.105Z,41.20
2023-01-29T07:48:23.118Z,39.70
2023-01-29T07:49:23.082Z,40.50
2023-01-29T07:50:23.108Z,40.60
2023-01-29T07:51:23.083Z,40.10
2023-01-29T07:52:23.088Z,41.60
2023-01-29T07:53:23.077Z,38.80
2023-01-29T07:54:23.053Z,39.20
2023-01-29T07:55:23.034Z,39.90
2023-01-29T07:56:23.068Z,40.80
2023-01-29T07:57:23.015Z,41.60
2023-01-29T07:58:23.022Z,40.60
2023-01-29T07:59:22.981Z,41.30
2023-01-29T08:00:22.991Z,40.70
2023-01-29T08:01:23.002Z,40.00
2023-01-29T08:02:23.042Z,41.00
2023-01-29T08:03:22.967Z,41.70
2023-01-29T08:04:22.958Z,41.30
2023-01-29T08:05:22.918Z,40.00
2023-01-29T08:06:22.938Z,40.50
2023-01-29T08:07:22.904Z,41.60
2023-01-29T08:08:22.913Z,40.40
2023-01-29T08:09:22.899Z,39.80
2023-01-29T08:10:22.897Z,40.00
2023-01-29T08:11:22.860Z,39.10
2023-01-29T08:12:22.873Z,40.90
2023-01-29T08:13:22.844Z,39.00
2023-01-29T08:14:22.855Z,39.10
2023-01-29T08:15:22.840Z,38.90
2023-01-29T08:16:22.862Z,39.30
2023-01-29T08:17:22.813Z,38.10
2023-01-29T08:18:22.819Z,40.10
2023-01-29T08:19:22.779Z,37.80
2023-01-29T08:20:22.833Z,39.10
2023-01-29T08:21:22.848Z,38.20
2023-01-29T08:22:22.769Z,37.20
2023-01-29T08:23:22.772Z,39.90
2023-01-29T08:24:24.065Z,39.50
2023-01-29T08:25:23.180Z,39.80
2023-01-29T08:26:22.728Z,37.70
2023-01-29T08:27:22.694Z,37.50
2023-01-29T08:28:22.756Z,39.00
2023-01-29T08:29:22.673Z,39.00
2023-01-29T08:30:22.708Z,36.80
2023-01-29T08:31:22.750Z,39.20
2023-01-29T08:32:22.668Z,38.40
2023-01-29T08:33:29.699Z,38.90
2023-01-29T08:34:22.656Z,39.00
2023-01-29T08:35:22.619Z,39.70
2023-01-29T08:36:23.918Z,41.20
2023-01-29T08:37:22.600Z,38.50
2023-01-29T08:38:22.603Z,37.20
2023-01-29T08:39:22.572Z,37.90
2023-01-29T08:40:22.583Z,36.60
2023-01-29T08:41:22.572Z,39.20
2023-01-29T08:42:22.595Z,38.40
2023-01-29T08:43:22.532Z,39.30
2023-01-29T08:44:22.552Z,38.70
2023-01-29T08:45:22.507Z,38.40
2023-01-29T08:46:22.841Z,38.50
2023-01-29T08:47:22.514Z,38.80
2023-01-29T08:48:22.502Z,36.50
2023-01-29T08:49:22.472Z,39.10
2023-01-29T08:50:22.483Z,37.20
2023-01-29T08:51:22.471Z,36.00
2023-01-29T08:52:22.480Z,36.40
2023-01-29T08:53:22.440Z,38.10
2023-01-29T08:54:22.447Z,39.00
2023-01-29T08:55:22.405Z,37.70
2023-01-29T08:56:22.446Z,37.80
2023-01-29T08:57:22.385Z,36.20
2023-01-29T08:58:22.426Z,35.20
2023-01-29T08:59:22.367Z,36.00
2023-01-29T09:00:22.390Z,36.90
2023-01-29T09:01:22.397Z,37.40
2023-01-29T09:02:22.390Z,36.10
2023-01-29T09:03:22.325Z,36.60
2023-01-29T09:04:22.369Z,37.00
2023-01-29T09:05:22.315Z,35.10
2023-01-29T09:06:22.576Z,35.50
2023-01-29T09:07:22.287Z,35.80
2023-01-29T09:08:22.334Z,35.60
2023-01-29T09:09:22.280Z,36.10
2023-01-29T09:10:22.298Z,35.20
2023-01-29T09:11:22.241Z,36.10
2023-01-29T09:12:22.271Z,35.90
2023-01-29T09:13:22.234Z,36.80
2023-01-29T09:14:22.249Z,36.30
2023-01-29T09:15:22.228Z,36.20
2023-01-29T09:16:22.259Z,34.10
2023-01-29T09:17:22.189Z,34.30
2023-01-29T09:18:22.203Z,33.80
2023-01-29T09:19:22.169Z,35.80
2023-01-29T09:20:22.188Z,35.40
2023-01-29T09:21:22.157Z,34.60
2023-01-29T09:22:22.134Z,33.60
2023-01-29T09:23:22.153Z,34.00
2023-01-29T09:24:22.120Z,34.00
2023-01-29T09:25:22.130Z,34.10
2023-01-29T09:26:22.141Z,33.90
2023-01-29T09:27:22.127Z,34.00
2023-01-29T09:28:22.078Z,33.60
2023-01-29T09:29:22.093Z,33.40
2023-01-29T09:30:22.051Z,33.10
2023-01-29T09:31:22.174Z,33.80
2023-01-29T09:32:49.881Z,33.20
2023-01-29T09:33:22.055Z,34.40
2023-01-29T09:34:22.024Z,33.60
2023-01-29T09:35:22.020Z,34.30
2023-01-29T09:36:22.005Z,34.20
2023-01-29T09:37:22.140Z,32.80
2023-01-29T09:38:22.015Z,32.80
2023-01-29T09:39:21.979Z,33.30
2023-01-29T09:40:21.990Z,34.30
2023-01-29T09:41:21.980Z,33.60
2023-01-29T09:42:21.939Z,33.50
2023-01-29T09:43:21.937Z,34.20
2023-01-29T09:44:21.922Z,33.50
2023-01-29T09:45:21.916Z,33.80
2023-01-29T09:46:21.908Z,34.20
2023-01-29T09:47:21.896Z,33.40
2023-01-29T09:48:21.880Z,32.90
2023-01-29T09:49:21.881Z,33.40
2023-01-29T09:50:22.110Z,33.40
2023-01-29T09:51:21.854Z,32.80
2023-01-29T09:52:21.830Z,32.50
2023-01-29T09:53:21.843Z,32.90
2023-01-29T09:54:21.816Z,32.80
2023-01-29T09:55:21.831Z,32.60
2023-01-29T09:56:21.788Z,32.60
2023-01-29T09:57:21.796Z,33.10
2023-01-29T09:58:21.766Z,32.30
2023-01-29T09:59:21.778Z,32.70
2023-01-29T10:00:21.764Z,31.50
2023-01-29T10:01:21.912Z,32.40
2023-01-29T10:02:21.783Z,32.70
2023-01-29T10:03:21.734Z,31.70
2023-01-29T10:04:21.740Z,31.60
2023-01-29T10:05:21.749Z,31.70
2023-01-29T10:06:21.678Z,33.30
2023-01-29T10:07:21.702Z,33.00
2023-01-29T10:08:21.661Z,32.20
2023-01-29T10:09:21.683Z,31.80
2023-01-29T10:10:21.747Z,32.20
2023-01-29T10:11:21.661Z,32.40
2023-01-29T10:12:21.632Z,31.30
2023-01-29T10:13:21.630Z,34.30
2023-01-29T10:14:21.599Z,32.80
2023-01-29T10:15:21.614Z,33.90
2023-01-29T10:16:21.598Z,34.70
2023-01-29T10:17:21.675Z,31.50
2023-01-29T10:18:21.562Z,34.10
2023-01-29T10:19:21.577Z,32.80
2023-01-29T10:20:21.540Z,33.10
2023-01-29T10:21:21.586Z,33.60
2023-01-29T10:22:21.522Z,32.30
2023-01-29T10:23:21.540Z,34.10
2023-01-29T10:24:21.504Z,32.40
2023-01-29T10:25:21.505Z,32.50
2023-01-29T10:26:21.510Z,32.50
2023-01-29T10:27:21.521Z,33.70
2023-01-29T10:28:21.466Z,36.60
2023-01-29T10:29:21.470Z,36.40
2023-01-29T10:30:21.435Z,45.30
2023-01-29T10:31:21.566Z,36.50
2023-01-29T10:32:21.421Z,37.00
2023-01-29T10:33:22.185Z,44.30
2023-01-29T10:34:21.437Z,36.30
2023-01-29T10:35:21.438Z,46.00
2023-01-29T10:36:21.375Z,44.80
2023-01-29T10:37:21.408Z,50.30
2023-01-29T10:38:21.382Z,43.60
2023-01-29T10:39:21.387Z,35.70
2023-01-29T10:40:21.350Z,33.80
2023-01-29T10:41:21.357Z,40.50
2023-01-29T10:42:21.314Z,32.60
2023-01-29T10:43:21.346Z,56.40
2023-01-29T10:44:21.287Z,36.00
2023-01-29T10:45:21.310Z,45.70
2023-01-29T10:46:21.269Z,34.90
2023-01-29T10:47:21.344Z,33.90
2023-01-29T10:48:21.284Z,31.80
2023-01-29T10:49:21.270Z,33.70
2023-01-29T10:50:21.234Z,35.20
2023-01-29T10:51:21.253Z,36.60
2023-01-29T10:52:21.228Z,32.90
2023-01-29T10:53:21.227Z,32.80
2023-01-29T10:54:21.216Z,33.70
2023-01-29T10:55:21.212Z,36.40
2023-01-29T10:56:23.435Z,32.90
2023-01-29T10:57:21.182Z,31.60
2023-01-29T10:58:21.145Z,34.00
2023-01-29T10:59:21.157Z,33.40
2023-01-29T11:00:21.137Z,33.80
2023-01-29T11:01:21.163Z,32.80
2023-01-29T11:02:21.205Z,33.50
2023-01-29T11:09:34.373Z,37.30
2023-01-29T11:09:39.236Z,32.30
2023-01-29T11:10:39.228Z,31.80
2023-01-29T11:11:39.211Z,33.60
2023-01-29T11:12:39.227Z,31.50
2023-01-29T11:13:39.187Z,31.10
2023-01-29T11:14:39.253Z,31.40
2023-01-29T11:15:39.180Z,31.30
2023-01-29T11:16:39.141Z,32.80
2023-01-29T11:17:39.243Z,31.70
2023-01-29T11:18:39.138Z,31.90
2023-01-29T11:19:39.130Z,31.90
2023-01-29T11:20:39.096Z,31.00
2023-01-29T11:21:39.720Z,31.90
2023-01-29T11:22:39.093Z,31.60
2023-01-29T11:23:39.080Z,30.90
2023-01-29T11:24:39.077Z,31.50
2023-01-29T11:25:39.065Z,31.70
2023-01-29T11:26:39.048Z,31.90
2023-01-29T11:27:39.043Z,32.30
2023-01-29T11:28:39.022Z,33.00
2023-01-29T11:29:39.034Z,32.30
2023-01-29T11:30:39.092Z,32.00
2023-01-29T11:31:39.072Z,33.10
2023-01-29T11:32:38.968Z,31.80
2023-01-29T11:33:38.991Z,33.30
2023-01-29T11:34:38.952Z,34.00
2023-01-29T11:35:38.983Z,32.30
2023-01-29T11:36:38.942Z,32.30
2023-01-29T11:37:38.936Z,32.20
2023-01-29T11:38:38.908Z,32.30
2023-01-29T11:39:38.922Z,33.00
2023-01-29T11:40:38.916Z,32.40
2023-01-29T11:41:38.926Z,32.70
2023-01-29T11:42:38.863Z,33.40
2023-01-29T11:43:38.884Z,31.70
2023-01-29T11:44:38.848Z,32.50
2023-01-29T11:45:38.864Z,33.40
2023-01-29T11:46:38.914Z,32.40
2023-01-29T11:47:38.834Z,32.10
2023-01-29T11:48:38.804Z,31.30
2023-01-29T11:49:38.860Z,32.10
2023-01-29T11:50:38.789Z,32.90
2023-01-29T11:51:38.795Z,31.60
2023-01-29T11:52:38.825Z,32.50
2023-01-29T11:53:38.880Z,32.50
2023-01-29T11:54:38.753Z,33.00
2023-01-29T11:55:50.338Z,33.40
2023-01-29T11:56:38.726Z,33.00
2023-01-29T11:57:38.795Z,32.20
2023-01-29T11:58:38.726Z,33.50
2023-01-29T11:59:38.717Z,33.50
2023-01-29T12:00:38.676Z,32.60
2023-01-29T12:01:38.693Z,33.20
2023-01-29T12:02:38.685Z,33.40
2023-01-29T12:03:38.701Z,32.40
2023-01-29T12:04:38.661Z,33.00
2023-01-29T12:05:38.682Z,31.60
2023-01-29T12:06:38.638Z,32.40
2023-01-29T12:07:38.627Z,33.10
2023-01-29T12:08:38.599Z,33.10
2023-01-29T12:09:38.619Z,32.30
2023-01-29T12:10:38.619Z,33.50
2023-01-29T12:11:38.651Z,33.30
2023-01-29T12:12:38.554Z,32.90
2023-01-29T12:13:38.569Z,32.70
2023-01-29T12:14:38.540Z,32.10
2023-01-29T12:15:38.546Z,34.90
2023-01-29T12:16:38.549Z,34.30
2023-01-29T12:17:38.525Z,32.90
2023-01-29T12:18:38.493Z,33.50
2023-01-29T12:19:38.507Z,32.40
2023-01-29T12:20:38.473Z,34.60
2023-01-29T12:21:38.495Z,33.70
2023-01-29T12:22:38.472Z,33.10
2023-01-29T12:23:38.446Z,33.50
2023-01-29T12:24:38.435Z,32.80
2023-01-29T12:25:38.449Z,34.50
2023-01-29T12:26:38.434Z,33.80
2023-01-29T12:27:38.424Z,33.40
2023-01-29T12:28:38.403Z,33.00
2023-01-29T12:29:38.382Z,32.40
2023-01-29T12:30:38.491Z,34.40
2023-01-29T12:31:38.441Z,33.30
2023-01-29T12:32:38.347Z,31.70
2023-01-29T12:33:38.362Z,32.20
2023-01-29T12:34:38.348Z,32.10
2023-01-29T12:35:38.335Z,30.10
2023-01-29T12:36:38.348Z,33.20
2023-01-29T12:37:38.299Z,31.60
2023-01-29T12:38:38.319Z,32.60
2023-01-29T12:39:38.312Z,31.50
2023-01-29T12:40:38.285Z,32.20
2023-01-29T12:41:38.289Z,31.00
2023-01-29T12:42:38.249Z,31.70
2023-01-29T12:43:38.265Z,30.90
2023-01-29T12:44:38.225Z,30.40
2023-01-29T12:45:38.240Z,31.70
2023-01-29T12:46:38.236Z,32.90
2023-01-29T12:47:38.240Z,31.80
2023-01-29T12:48:38.214Z,31.50
2023-01-29T12:49:38.201Z,31.80
2023-01-29T12:50:38.182Z,31.50
2023-01-29T12:51:38.183Z,31.90
2023-01-29T12:52:38.143Z,29.90
2023-01-29T12:53:38.181Z,31.30
2023-01-29T12:54:38.125Z,32.40
2023-01-29T12:55:38.135Z,31.20
2023-01-29T12:56:38.121Z,32.00
2023-01-29T12:57:38.111Z,31.00